sensor_id;sensor_type;location;lat;lon;timestamp;pressure;altitude;pressure_sealevel;temperature;humidity
48882;BME280;57063;51.406;-2.402;2022-12-15T05:51:29;99961.59;;;-6.67;96.20
48882;BME280;57063;51.406;-2.402;2022-12-15T05:54:09;99964.91;;;-6.74;98.22
48882;BME280;57063;51.406;-2.402;2022-12-15T05:56:38;99955.66;;;-6.87;98.60
48882;BME280;57063;51.406;-2.402;2022-12-15T05:59:07;99947.25;;;-6.91;99.07
48882;BME280;57063;51.406;-2.402;2022-12-15T06:01:36;99957.41;;;-6.75;100.00
48882;BME280;57063;51.406;-2.402;2022-12-15T06:04:24;99952.34;;;-6.84;100.00
48882;BME280;57063;51.406;-2.402;2022-12-15T06:06:57;99960.78;;;-6.65;100.00
48882;BME280;57063;51.406;-2.402;2022-12-15T06:09:34;99953.34;;;-6.39;98.70
48882;BME280;57063;51.406;-2.402;2022-12-15T06:11:59;99977.66;;;-6.29;98.56
48882;BME280;57063;51.406;-2.402;2022-12-15T06:14:25;100011.19;;;-6.21;98.96
48882;BME280;57063;51.406;-2.402;2022-12-15T06:16:59;99964.09;;;-6.77;98.89
48882;BME280;57063;51.406;-2.402;2022-12-15T06:19:28;99990.78;;;-6.85;100.00
48882;BME280;57063;51.406;-2.402;2022-12-15T06:21:54;99980.41;;;-7.38;100.00
48882;BME280;57063;51.406;-2.402;2022-12-15T06:24:23;99977.81;;;-7.47;100.00
48882;BME280;57063;51.406;-2.402;2022-12-15T06:26:51;99973.34;;;-7.82;100.00
48882;BME280;57063;51.406;-2.402;2022-12-15T06:29:35;99970.81;;;-7.83;100.00
48882;BME280;57063;51.406;-2.402;2022-12-15T06:32:00;100005.13;;;-7.78;100.00
48882;BME280;57063;51.406;-2.402;2022-12-15T06:34:26;99978.09;;;-8.06;100.00
48882;BME280;57063;51.406;-2.402;2022-12-15T06:36:52;99971.97;;;-8.33;100.00
48882;BME280;57063;51.406;-2.402;2022-12-15T06:39:21;99978.59;;;-8.41;100.00
48882;BME280;57063;51.406;-2.402;2022-12-15T06:41:49;99971.75;;;-8.53;100.00
48882;BME280;57063;51.406;-2.402;2022-12-15T06:44:15;99975.16;;;-8.48;100.00
48882;BME280;57063;51.406;-2.402;2022-12-15T06:46:43;99961.59;;;-8.64;100.00
48882;BME280;57063;51.406;-2.402;2022-12-15T06:49:10;99973.53;;;-8.44;100.00
48882;BME280;57063;51.406;-2.402;2022-12-15T06:51:36;99967.72;;;-8.43;100.00
48882;BME280;57063;51.406;-2.402;2022-12-15T06:54:02;99973.59;;;-8.35;100.00
48882;BME280;57063;51.406;-2.402;2022-12-15T06:56:31;99970.16;;;-8.48;100.00
48882;BME280;57063;51.406;-2.402;2022-12-15T06:58:58;100022.03;;;-8.33;100.00
48882;BME280;57063;51.406;-2.402;2022-12-15T07:01:25;99979.13;;;-8.64;100.00
48882;BME280;57063;51.406;-2.402;2022-12-15T07:04:13;99983.25;;;-8.67;100.00
48882;BME280;57063;51.406;-2.402;2022-12-15T07:06:57;99976.28;;;-8.90;100.00
48882;BME280;57063;51.406;-2.402;2022-12-15T07:09:26;99979.59;;;-8.91;100.00
48882;BME280;57063;51.406;-2.402;2022-12-15T07:12:04;99980.22;;;-9.06;100.00
48882;BME280;57063;51.406;-2.402;2022-12-15T07:14:33;100002.94;;;-8.92;100.00
48882;BME280;57063;51.406;-2.402;2022-12-15T08:19:33;100029.31;;;-9.62;100.00
48882;BME280;57063;51.406;-2.402;2022-12-15T11:08:18;100119.31;;;-1.08;76.04
48882;BME280;57063;51.406;-2.402;2022-12-15T11:10:55;100127.25;;;-0.75;75.34
48882;BME280;57063;51.406;-2.402;2022-12-15T13:14:33;100087.59;;;1.91;64.44
48882;BME280;57063;51.406;-2.402;2022-12-15T13:17:47;100113.94;;;1.90;65.44
48882;BME280;57063;51.406;-2.402;2022-12-15T13:22:33;100085.06;;;1.27;67.32
48882;BME280;57063;51.406;-2.402;2022-12-15T13:25:35;100101.84;;;1.33;68.13
48882;BME280;57063;51.406;-2.402;2022-12-15T13:28:36;100100.53;;;1.17;68.22
48882;BME280;57063;51.406;-2.402;2022-12-15T13:31:31;100083.59;;;0.81;68.96
48882;BME280;57063;51.406;-2.402;2022-12-15T13:45:13;100079.53;;;0.35;71.74
48882;BME280;57063;51.406;-2.402;2022-12-15T13:47:53;100111.47;;;0.47;73.06
48882;BME280;57063;51.406;-2.402;2022-12-15T13:50:47;100074.00;;;0.16;73.72
48882;BME280;57063;51.406;-2.402;2022-12-15T13:53:52;100065.00;;;0.02;74.72
48882;BME280;57063;51.406;-2.402;2022-12-15T21:13:26;100355.50;;;-4.17;100.00
48882;BME280;57063;51.406;-2.402;2022-12-15T21:16:02;100363.06;;;-4.08;100.00
48882;BME280;57063;51.406;-2.402;2022-12-15T21:18:37;100357.19;;;-4.24;100.00
48882;BME280;57063;51.406;-2.402;2022-12-15T21:21:05;100384.94;;;-4.04;100.00
48882;BME280;57063;51.406;-2.402;2022-12-15T21:23:36;100371.47;;;-4.18;100.00
48882;BME280;57063;51.406;-2.402;2022-12-15T21:26:01;100387.47;;;-4.04;100.00
48882;BME280;57063;51.406;-2.402;2022-12-15T21:28:28;100360.56;;;-4.14;100.00
48882;BME280;57063;51.406;-2.402;2022-12-15T21:30:53;100362.25;;;-4.16;100.00
48882;BME280;57063;51.406;-2.402;2022-12-15T21:33:19;100374.00;;;-4.18;100.00
48882;BME280;57063;51.406;-2.402;2022-12-15T21:35:46;100363.06;;;-4.17;100.00
48882;BME280;57063;51.406;-2.402;2022-12-15T21:38:38;100378.19;;;-4.05;100.00
48882;BME280;57063;51.406;-2.402;2022-12-15T21:41:08;100372.31;;;-4.19;100.00
48882;BME280;57063;51.406;-2.402;2022-12-15T21:43:35;100384.09;;;-4.06;100.00
48882;BME280;57063;51.406;-2.402;2022-12-15T21:46:03;100371.47;;;-4.18;100.00
48882;BME280;57063;51.406;-2.402;2022-12-15T21:48:34;100372.31;;;-4.19;100.00
48882;BME280;57063;51.406;-2.402;2022-12-15T21:51:18;100362.22;;;-4.10;100.00
48882;BME280;57063;51.406;-2.402;2022-12-15T21:53:44;100379.88;;;-3.93;100.00
48882;BME280;57063;51.406;-2.402;2022-12-15T21:56:15;100382.41;;;-4.07;100.00
48882;BME280;57063;51.406;-2.402;2022-12-15T21:58:41;100395.84;;;-4.11;100.00
48882;BME280;57063;51.406;-2.402;2022-12-15T22:01:19;100399.19;;;-4.12;100.00
48882;BME280;57063;51.406;-2.402;2022-12-15T22:03:56;100395.81;;;-4.25;100.00
48882;BME280;57063;51.406;-2.402;2022-12-15T22:06:27;100373.91;;;-4.50;100.00
48882;BME280;57063;51.406;-2.402;2022-12-15T22:08:57;100397.47;;;-4.36;100.00
48882;BME280;57063;51.406;-2.402;2022-12-15T22:11:28;100397.44;;;-4.50;100.00
48882;BME280;57063;51.406;-2.402;2022-12-15T22:13:56;100411.75;;;-4.38;100.00
48882;BME280;57063;51.406;-2.402;2022-12-15T22:16:23;100385.66;;;-4.57;100.00
48882;BME280;57063;51.406;-2.402;2022-12-15T22:18:53;100389.84;;;-4.56;100.00
48882;BME280;57063;51.406;-2.402;2022-12-15T22:21:23;100399.94;;;-4.55;100.00
48882;BME280;57063;51.406;-2.402;2022-12-15T22:23:50;100423.50;;;-4.30;100.00
48882;BME280;57063;51.406;-2.402;2022-12-15T22:26:26;100391.59;;;-4.41;100.00
48882;BME280;57063;51.406;-2.402;2022-12-15T22:28:54;100389.09;;;-4.34;100.00
48882;BME280;57063;51.406;-2.402;2022-12-15T22:31:20;100399.16;;;-4.31;100.00
48882;BME280;57063;51.406;-2.402;2022-12-15T22:33:46;100409.28;;;-4.18;100.00
48882;BME280;57063;51.406;-2.402;2022-12-15T22:36:11;100386.59;;;-4.29;100.00
48882;BME280;57063;51.406;-2.402;2022-12-15T22:38:37;100408.41;;;-4.25;100.00
48882;BME280;57063;51.406;-2.402;2022-12-15T22:41:03;100397.47;;;-4.41;100.00
48882;BME280;57063;51.406;-2.402;2022-12-15T22:43:41;100384.00;;;-4.37;100.00
48882;BME280;57063;51.406;-2.402;2022-12-15T22:46:11;100405.84;;;-4.48;100.00
48882;BME280;57063;51.406;-2.402;2022-12-15T22:48:40;100404.06;;;-4.70;100.00
48882;BME280;57063;51.406;-2.402;2022-12-15T22:51:06;100425.13;;;-4.52;100.00
48882;BME280;57063;51.406;-2.402;2022-12-15T22:53:35;100402.44;;;-4.56;100.00
48882;BME280;57063;51.406;-2.402;2022-12-15T22:56:03;100424.31;;;-4.40;100.00
48882;BME280;57063;51.406;-2.402;2022-12-15T22:58:34;100410.84;;;-4.60;100.00
48882;BME280;57063;51.406;-2.402;2022-12-15T23:01:03;100421.81;;;-4.37;100.00
48882;BME280;57063;51.406;-2.402;2022-12-15T23:03:31;100393.19;;;-4.60;100.00
48882;BME280;57063;51.406;-2.402;2022-12-15T23:05:59;100414.28;;;-4.31;100.00
48882;BME280;57063;51.406;-2.402;2022-12-15T23:08:26;100419.28;;;-4.37;100.00
48882;BME280;57063;51.406;-2.402;2022-12-15T23:10:52;100427.72;;;-4.25;100.00
48882;BME280;57063;51.406;-2.402;2022-12-15T23:13:36;100428.56;;;-4.25;100.00
48882;BME280;57063;51.406;-2.402;2022-12-15T23:16:03;100418.47;;;-4.36;100.00
48882;BME280;57063;51.406;-2.402;2022-12-15T23:18:52;100415.91;;;-4.42;100.00
48882;BME280;57063;51.406;-2.402;2022-12-15T23:21:19;100419.28;;;-4.43;100.00
48882;BME280;57063;51.406;-2.402;2022-12-15T23:23:45;100431.91;;;-4.27;100.00
48882;BME280;57063;51.406;-2.402;2022-12-15T23:26:12;100404.16;;;-4.37;100.00
48882;BME280;57063;51.406;-2.402;2022-12-15T23:28:43;100433.59;;;-4.28;100.00
48882;BME280;57063;51.406;-2.402;2022-12-15T23:31:10;100416.81;;;-4.27;100.00
48882;BME280;57063;51.406;-2.402;2022-12-15T23:33:40;100424.34;;;-4.27;100.00
48882;BME280;57063;51.406;-2.402;2022-12-15T23:36:08;100445.41;;;-4.10;100.00
48882;BME280;57063;51.406;-2.402;2022-12-15T23:38:34;100443.66;;;-4.34;100.00
48882;BME280;57063;51.406;-2.402;2022-12-15T23:41:00;100418.31;;;-4.77;100.00
48882;BME280;57063;51.406;-2.402;2022-12-15T23:43:26;100434.13;;;-4.95;100.00
48882;BME280;57063;51.406;-2.402;2022-12-15T23:45:58;100455.09;;;-4.98;100.00
48882;BME280;57063;51.406;-2.402;2022-12-15T23:48:27;100426.53;;;-5.09;100.00
48882;BME280;57063;51.406;-2.402;2022-12-15T23:50:52;100458.41;;;-5.06;100.00
48882;BME280;57063;51.406;-2.402;2022-12-15T23:53:18;100421.31;;;-5.38;100.00
48882;BME280;57063;51.406;-2.402;2022-12-15T23:55:44;100422.88;;;-5.51;100.00
48882;BME280;57063;51.406;-2.402;2022-12-15T23:58:09;100444.69;;;-5.47;100.00
